Mather, Pennsylvania
Current Conditions -  °F | °C
As of 10:35 AM on Saturday 22 Nov 2014 (Local Time) from KAFJ Reporting Station
Overcast Overcast  
Wind Chill: 32°   Ceiling: 2600
Heat Index: 37°   Visibility: 10mi
Dew Point: 19°   Wind: 7mph
Humidity: 48%   Direction: 230°SW
Pressure: 30.31"   Gusts: NA
Location:  39.93°N, 80.07°W
Report Text: KAFJ 221535Z 23006KT 10SM FEW019 OVC026 03/M07 A3031 RMK AO1
Loading
Personal Weather Stations






























Interactive Weather Map New forecast layout! Learn more

10-Day Weather Forecast

Advertisements
Track Severe Weather on mobile